Flight Track Log - Related Links

Times and Time Zones

All times are in EST time to prevent confusion due to time zone crossing. See the GJS6221 flight status page for this flight to view local times or setup timezone preferences in your user account.

Time Position Orientation Groundspeed Altitude Reporting Facility
EST Latitude Longitude Course Direction KTS MPH feet Rate Location/Type
Sat 08:46:23 AM 40.8500 -73.9333 224° Southwest 219 252 3,600  Level New York TRACON
Sat 08:47:23 AM 40.9167 -73.9667 339° North 268 308 5,900 2,529 Climbing New York TRACON
Sat 08:48:24 AM 40.9167 -74.0500 270° West 239 275 8,700 2,700 Climbing New York TRACON
Sat 08:49:23 AM 40.8833 -74.1167 237° Southwest 247 284 11,300 2,478 Climbing New York TRACON
Sat 08:51:00 AM 40.4513 -74.3354 224° Southwest  Level Estimated
Sat 08:51:45 AM 40.8378 -74.3092 253° West 244 281 17,000  Level New York Center
Sat 08:52:45 AM 40.8772 -74.3828 305° West 254 292 17,100 50 Climbing New York Center
Sat 08:53:45 AM 40.8108 -74.4422 214° Southwest 224 258 17,100  Level New York Center
Sat 08:54:45 AM 40.7500 -74.5211 225° Southwest 278 320 17,100 850 Level New York Center
Sat 08:55:45 AM 40.6889 -74.6053 226° Southwest 321 369 18,800 1,600 Climbing New York Center
Sat 08:56:45 AM 40.6322 -74.6842 227° Southwest 326 375 20,300 1,500 Climbing New York Center
Sat 08:57:45 AM 40.5644 -74.7758 226° Southwest 338 389 21,800 850 Climbing New York Center
Sat 08:58:45 AM 40.5031 -74.8678 229° Southwest 344 396 22,000 100 Climbing New York Center
Sat 08:59:45 AM 40.4372 -74.9594 227° Southwest 344 396 22,000  Level New York Center
Sat 09:00:45 AM 40.3714 -75.0508 227° Southwest 344 396 22,000  Level New York Center
Sat 09:01:45 AM 40.3033 -75.1444 226° Southwest 349 402 22,000  Level New York Center
Sat 09:02:45 AM 40.2375 -75.2356 227° Southwest 354 407 22,000  Level New York Center
Sat 09:03:45 AM 40.1714 -75.3292 227° Southwest 359 413 22,000  Level New York Center
Sat 09:04:45 AM 40.1031 -75.4222 226° Southwest 359 413 22,000  Level New York Center
Sat 09:05:45 AM 40.0369 -75.5128 226° Southwest 359 413 22,000  Level New York Center
Sat 09:06:45 AM 39.9686 -75.6056 226° Southwest 359 413 22,000  Level New York Center
Sat 09:07:45 AM 39.9042 -75.7014 229° Southwest 359 413 22,000  Level New York Center
Sat 09:08:45 AM 39.8417 -75.7997 230° Southwest 354 407 22,000  Level New York Center
Sat 09:10:22 AM 39.7358 -75.9667 231° Southwest 367 422 22,000 -38 Level Washington Center
Sat 09:11:23 AM 39.6667 -76.0767 231° Southwest 395 455 21,900 -50 Descending Washington Center
Sat 09:12:21 AM 39.5956 -76.1894 231° Southwest 410 472 21,900  Level Washington Center
Sat 09:13:21 AM 39.5239 -76.2992 230° Southwest 410 472 21,900 50 Level Washington Center
Sat 09:14:22 AM 39.4525 -76.4114 231° Southwest 405 466 22,000 50 Climbing Washington Center
Sat 09:15:21 AM 39.3786 -76.5206 229° Southwest 405 466 22,000  Level Washington Center
Sat 09:16:22 AM 39.3069 -76.6322 230° Southwest 405 466 22,000  Level Washington Center
Sat 09:17:22 AM 39.2372 -76.7411 230° Southwest 405 466 22,000  Level Washington Center
Sat 09:18:23 AM 39.1672 -76.8497 230° Southwest 394 453 22,000  Level Washington Center
Sat 09:19:21 AM 39.0972 -76.9611 231° Southwest 394 453 22,000  Level Washington Center
Sat 09:20:26 AM 39.0000 -77.0833 224° Southwest 397 457 22,000  Level Potomac TRACON
Sat 09:21:27 AM 38.9333 -77.1667 224° Southwest 423 487 22,000  Level Potomac TRACON
Sat 09:22:27 AM 38.8500 -77.2667 223° Southwest 398 458 22,000  Level Potomac TRACON
Sat 09:23:27 AM 38.7667 -77.3500 218° Southwest 387 445 22,000  Level Potomac TRACON
Sat 09:24:27 AM 38.6833 -77.4333 218° Southwest 387 445 22,000  Level Potomac TRACON
Sat 09:25:27 AM 38.6000 -77.5333 223° Southwest 386 444 22,000 -316 Level Potomac TRACON
Sat 09:26:21 AM 38.5333 -77.6000 218° Southwest 314 361 21,400 -1,000 Descending Potomac TRACON
Sat 09:27:21 AM 38.4967 -77.6953 244° Southwest 284 327 20,100 -700 Descending Washington Center
Sat 09:28:21 AM 38.4556 -77.7789 238° Southwest 284 327 20,000 -50 Descending Washington Center
Sat 09:29:21 AM 38.3981 -77.8489 224° Southwest 289 333 20,000  Level Washington Center
Sat 09:30:23 AM 38.3406 -77.9214 225° Southwest 289 333 20,000  Level Washington Center
Sat 09:31:23 AM 38.2719 -78.0064 224° Southwest 321 369 20,000  Level Washington Center
Sat 09:32:21 AM 38.2036 -78.0942 225° Southwest 338 389 20,000  Level Washington Center
Sat 09:33:23 AM 38.1350 -78.1789 224° Southwest 349 402 20,000  Level Washington Center
Sat 09:34:21 AM 38.0728 -78.2558 224° Southwest 349 402 20,000  Level Washington Center
Sat 09:35:23 AM 38.0042 -78.3403 224° Southwest 349 402 20,000  Level Washington Center
Sat 09:36:23 AM 37.9375 -78.4222 224° Southwest 349 402 20,000  Level Washington Center
Sat 09:37:22 AM 37.8603 -78.5139 223° Southwest 349 402 20,000  Level Washington Center
Sat 09:38:22 AM 37.7914 -78.5981 224° Southwest 349 402 20,000  Level Washington Center
Sat 09:39:23 AM 37.7144 -78.6736 218° Southwest 349 402 20,000  Level Washington Center
Sat 09:40:21 AM 37.6372 -78.7519 219° Southwest 354 407 20,000  Level Washington Center
Sat 09:41:21 AM 37.5603 -78.8247 217° Southwest 359 413 20,000  Level Washington Center
Sat 09:42:23 AM 37.4897 -78.8922 217° Southwest 359 413 20,000  Level Washington Center
Sat 09:43:21 AM 37.4083 -78.9700 217° Southwest 359 413 20,000  Level Washington Center
Sat 09:44:23 AM 37.3267 -79.0472 217° Southwest 364 419 20,000  Level Washington Center
Sat 09:45:23 AM 37.2453 -79.1244 217° Southwest 364 419 20,000  Level Washington Center
Sat 09:46:23 AM 37.1658 -79.2017 218° Southwest 364 419 20,000  Level Washington Center
Sat 09:47:21 AM 37.0775 -79.2861 217° Southwest 369 425 20,000  Level Washington Center
Sat 09:48:22 AM 36.9981 -79.3628 218° Southwest 369 425 20,000  Level Washington Center
Sat 09:49:22 AM 36.9225 -79.4369 218° Southwest 363 418 20,000  Level Washington Center
Sat 09:50:21 AM 36.8408 -79.5133 217° Southwest 363 418 20,000  Level Washington Center
Sat 09:51:22 AM 36.7697 -79.5797 217° Southwest 363 418 20,000  Level Washington Center
Sat 09:52:22 AM 36.6903 -79.6533 217° Southwest 363 418 20,000  Level Washington Center
Sat 09:53:39 AM 36.5781 -79.7578 217° Southwest 363 418 20,000  Level Atlanta Center
Sat 09:54:39 AM 36.4972 -79.8344 217° Southwest 363 418 20,000  Level Atlanta Center
Sat 09:55:39 AM 36.4244 -79.9003 216° Southwest 363 418 20,000  Level Atlanta Center
Sat 09:56:39 AM 36.3497 -79.9711 217° Southwest 358 412 20,000 -200 Level Atlanta Center
Sat 09:57:39 AM 36.2789 -80.0417 219° Southwest 345 397 19,600 50 Descending Atlanta Center
Sat 09:58:39 AM 36.2061 -80.1094 217° Southwest 335 386 20,100 50 Climbing Atlanta Center
Sat 09:59:39 AM 36.1206 -80.1753 212° Southwest 335 386 19,700 -1,150 Descending Atlanta Center
Sat 10:00:39 AM 36.0453 -80.2356 213° Southwest 335 386 17,800 -1,900 Descending Atlanta Center
Sat 10:01:39 AM 35.9761 -80.2978 216° Southwest 335 386 15,900 -1,696 Descending Atlanta Center
Sat 10:02:11 AM 35.9417 -80.3275 215° Southwest 299 344 15,200 -1,200 Descending Atlanta Center
Sat 10:02:39 AM 35.9131 -80.3494 212° Southwest 320 368 14,700 -1,054 Descending Atlanta Center
Sat 10:03:25 AM 35.8583 -80.4006 217° Southwest 292 336 13,900 -1,000 Descending Atlanta Center
Sat 10:03:39 AM 35.8481 -80.4036 194° South 304 350 13,700 -1,254 Descending Atlanta Center
Sat 10:04:32 AM 35.7850 -80.4600 216° Southwest 274 315 12,500 -1,200 Descending Atlanta Center
Sat 10:04:39 AM 35.7850 -80.4600 216° Southwest 291 335 12,500 -1,180 Level Atlanta Center
Sat 10:05:33 AM 35.7303 -80.5189 221° Southwest 262 302 11,300 -1,200 Descending Atlanta Center
Sat 10:05:39 AM 35.7306 -80.5214 278° West 281 323 11,300 -1,967 Level Atlanta Center
Sat 10:06:34 AM 35.6992 -80.5967 243° Southwest 246 283 9,300 -2,000 Descending Atlanta Center
Sat 10:06:39 AM 35.6992 -80.5942 90° East 262 302 9,300 -1,258 Level Atlanta Center
Sat 10:07:36 AM 35.6742 -80.6744 249° West 236 272 8,000 -1,300 Descending Atlanta Center
Sat 10:07:39 AM 35.6742 -80.6694 90° East 251 289 8,000  Level Atlanta Center
Sat 10:08:37 AM 35.6681 -80.7592 265° West 248 285 8,000  Level Atlanta Center
Sat 10:08:39 AM 35.6700 -80.7539 66° East 246 283 8,000  Level Atlanta Center
Sat 10:09:32 AM 35.6764 -80.8381 275° West 258 297 8,000  Level Atlanta Center
Sat 10:09:39 AM 35.6764 -80.8381 275° West 247 284 8,000  Level Atlanta Center
Sat 10:10:33 AM 35.6850 -80.9247 277° West 259 298 8,000  Level Atlanta Center
Sat 10:10:39 AM 35.6850 -80.9247 277° West 253 291 8,000  Level Atlanta Center
Sat 10:11:34 AM 35.6639 -81.0022 251° West 245 282 8,000  Level Atlanta Center
Sat 10:11:39 AM 35.6619 -81.0022 180° South 253 291 8,000  Level Atlanta Center
Sat 10:12:41 AM 35.5842 -80.9847 170° South 254 292 8,000 -732 Level Atlanta Center
Sat 10:13:42 AM 35.5236 -80.9792 176° South 211 243 6,500 -1,230 Descending Atlanta Center
Sat 10:14:43 AM 35.4672 -80.9764 178° South 197 227 5,500 -974 Descending Atlanta Center
Sat 10:15:39 AM 35.4172 -80.9731 177° South 192 221 4,600 -984 Descending Atlanta Center
Sat 10:16:45 AM 35.3628 -80.9675 175° South 165 190 3,500 -945 Descending Atlanta Center
Sat 10:17:46 AM 35.3189 -80.9639 176° South 161 185 2,600 -732 Descending Atlanta Center
Sat 10:18:48 AM 35.2875 -80.9625 178° South 105 121 2,000 -634 Descending Atlanta Center
Sat 10:19:49 AM 35.2519 -80.9564 172° South 111 128 1,300 -689 Descending Atlanta Center
Sat 10:21:00 AM 35.2137 -80.9491 219° Southwest  Level Estimated
Sat 10:28:00 AM 35.2137 -80.9491 219° Southwest  Level Estimated

Login

Don't have an account? Register now (free) for customized features, flight alerts, and more!